Time;durP1;ratioP1;P1;durP2;ratioP2;P2;SDS_P1;SDS_P2;PMS_P1;PMS_P2;Temp;Humidity;BMP_temperature;BMP_pressure;BME280_temperature;BME280_humidity;BME280_pressure;Samples;Min_cycle;Max_cycle;Signal;HPM_P1;HPM_P2
2024/01/19 00:02:23;;;;;;;11.20;5.78;;;;;;;;;;5081834;28;20079;-62
2024/01/19 00:04:49;;;;;;;9.73;5.97;;;;;;;;;;5074317;28;20048;-62
2024/01/19 00:07:16;;;;;;;10.98;5.43;;;;;;;;;;5086784;28;20056;-62
2024/01/19 00:09:42;;;;;;;13.48;5.63;;;;;;;;;;5087088;28;20055;-62
2024/01/19 00:12:09;;;;;;;9.50;5.10;;;;;;;;;;5083237;28;20064;-61
2024/01/19 00:14:35;;;;;;;12.98;5.53;;;;;;;;;;5088882;28;20080;-62
2024/01/19 00:17:01;;;;;;;8.60;4.97;;;;;;;;;;5077811;28;20048;-62
2024/01/19 00:19:28;;;;;;;10.23;5.00;;;;;;;;;;5083166;28;20535;-62
2024/01/19 00:21:54;;;;;;;8.70;5.05;;;;;;;;;;5086683;28;20051;-62
2024/01/19 00:24:21;;;;;;;9.02;4.95;;;;;;;;;;5081871;28;20047;-61
2024/01/19 00:26:47;;;;;;;14.35;5.53;;;;;;;;;;5095110;28;20517;-62
2024/01/19 00:29:14;;;;;;;9.63;5.25;;;;;;;;;;5094687;28;20051;-62
2024/01/19 00:31:45;;;;;;;10.95;5.30;;;;;;;;;;5087994;28;20056;-62
2024/01/19 00:34:12;;;;;;;7.90;4.65;;;;;;;;;;5080444;28;20123;-62
2024/01/19 00:36:38;;;;;;;9.38;4.82;;;;;;;;;;5092203;28;20058;-63
2024/01/19 00:39:05;;;;;;;9.25;5.03;;;;;;;;;;5051323;28;20045;-61
2024/01/19 00:41:31;;;;;;;10.20;5.15;;;;;;;;;;5076521;28;20052;-62
2024/01/19 00:43:58;;;;;;;7.38;4.18;;;;;;;;;;5096096;28;20164;-62
2024/01/19 00:46:24;;;;;;;12.63;4.60;;;;;;;;;;5058001;28;20048;-62
2024/01/19 00:48:51;;;;;;;10.43;4.28;;;;;;;;;;5094463;28;20044;-62
2024/01/19 00:51:17;;;;;;;8.02;4.28;;;;;;;;;;5087338;28;20071;-61
2024/01/19 00:53:44;;;;;;;10.73;4.28;;;;;;;;;;5088963;28;20043;-62
2024/01/19 00:56:10;;;;;;;9.55;4.20;;;;;;;;;;5105258;28;20040;-62
2024/01/19 00:58:40;;;;;;;9.85;4.10;;;;;;;;;;5078987;28;20048;-61
2024/01/19 01:01:07;;;;;;;9.15;3.97;;;;;;;;;;5085858;28;20094;-61
2024/01/19 01:03:33;;;;;;;7.97;3.67;;;;;;;;;;5076927;28;20059;-64
2024/01/19 01:05:59;;;;;;;7.20;3.15;;;;;;;;;;5089739;28;20043;-62
2024/01/19 01:08:27;;;;;;;7.00;2.97;;;;;;;;;;5086936;28;20062;-62
2024/01/19 01:10:54;;;;;;;7.70;3.03;;;;;;;;;;5093322;28;20047;-64
2024/01/19 01:13:21;;;;;;;6.65;2.85;;;;;;;;;;5081123;28;20617;-62
2024/01/19 01:15:48;;;;;;;4.68;2.47;;;;;;;;;;5079505;28;20048;-62
2024/01/19 01:18:16;;;;;;;9.10;2.55;;;;;;;;;;5104648;28;20047;-62
2024/01/19 01:20:43;;;;;;;7.93;2.58;;;;;;;;;;5086807;28;20432;-62
2024/01/19 01:23:09;;;;;;;7.25;2.15;;;;;;;;;;5080391;28;20075;-63
2024/01/19 01:25:36;;;;;;;3.75;2.65;;;;;;;;;;5057634;28;20087;-62
2024/01/19 01:28:03;;;;;;;6.18;2.50;;;;;;;;;;5075452;28;20099;-62
2024/01/19 01:30:29;;;;;;;4.85;2.75;;;;;;;;;;5092956;28;20056;-63
2024/01/19 01:32:56;;;;;;;10.13;3.25;;;;;;;;;;5079898;28;20071;-62
2024/01/19 01:35:22;;;;;;;7.13;2.50;;;;;;;;;;5085759;28;20407;-62
2024/01/19 01:37:49;;;;;;;4.97;2.78;;;;;;;;;;5090622;28;20071;-63
2024/01/19 01:40:15;;;;;;;10.68;2.85;;;;;;;;;;5075340;28;20044;-62
2024/01/19 01:42:42;;;;;;;8.55;3.03;;;;;;;;;;5077742;28;20040;-62
2024/01/19 01:45:08;;;;;;;4.97;2.38;;;;;;;;;;5050841;28;20040;-63
2024/01/19 01:47:35;;;;;;;4.88;2.25;;;;;;;;;;5085768;28;20063;-62
2024/01/19 01:50:02;;;;;;;3.90;2.40;;;;;;;;;;5079764;28;20404;-62
2024/01/19 01:52:28;;;;;;;3.50;2.15;;;;;;;;;;5084699;28;20090;-62
2024/01/19 01:54:55;;;;;;;3.60;2.03;;;;;;;;;;5079580;28;20059;-62
2024/01/19 01:57:22;;;;;;;7.57;2.30;;;;;;;;;;5081015;28;20106;-63
2024/01/19 01:59:49;;;;;;;4.15;1.90;;;;;;;;;;5085909;28;20764;-63
2024/01/19 02:02:15;;;;;;;4.30;2.03;;;;;;;;;;5060834;28;20044;-62
2024/01/19 02:04:42;;;;;;;4.22;1.73;;;;;;;;;;5080794;28;20511;-63
2024/01/19 02:07:08;;;;;;;4.20;2.13;;;;;;;;;;5073299;28;20688;-62
2024/01/19 02:09:36;;;;;;;4.60;2.00;;;;;;;;;;5085984;28;20125;-63
2024/01/19 02:12:03;;;;;;;5.85;1.80;;;;;;;;;;5083649;28;20063;-62
2024/01/19 02:14:30;;;;;;;4.22;1.60;;;;;;;;;;5065150;28;20052;-62
2024/01/19 02:16:56;;;;;;;3.58;1.85;;;;;;;;;;5094208;28;20044;-62
2024/01/19 02:19:22;;;;;;;6.03;2.50;;;;;;;;;;5088161;28;20492;-63
2024/01/19 02:21:49;;;;;;;3.60;1.70;;;;;;;;;;5082848;28;20059;-62
2024/01/19 02:24:15;;;;;;;2.00;1.35;;;;;;;;;;5092836;28;20047;-62
2024/01/19 02:26:42;;;;;;;4.53;1.80;;;;;;;;;;5080715;28;20079;-63
2024/01/19 02:29:09;;;;;;;1.77;1.40;;;;;;;;;;5092444;28;20031;-62
2024/01/19 02:31:35;;;;;;;1.67;1.20;;;;;;;;;;5077608;28;20105;-62
2024/01/19 02:34:02;;;;;;;2.55;1.40;;;;;;;;;;5092643;28;20047;-62
2024/01/19 02:36:28;;;;;;;2.90;1.20;;;;;;;;;;5089493;28;20040;-61
2024/01/19 02:38:55;;;;;;;6.32;1.70;;;;;;;;;;5077657;28;20121;-61
2024/01/19 02:41:21;;;;;;;3.30;1.35;;;;;;;;;;5093425;28;20551;-61
2024/01/19 02:43:48;;;;;;;1.95;1.45;;;;;;;;;;5083801;28;20056;-63
2024/01/19 02:46:15;;;;;;;4.20;1.80;;;;;;;;;;5088141;28;20043;-62
2024/01/19 02:48:41;;;;;;;2.25;1.85;;;;;;;;;;5088517;28;20075;-62
2024/01/19 02:51:08;;;;;;;4.63;1.85;;;;;;;;;;5097431;28;20047;-62
2024/01/19 02:53:34;;;;;;;8.10;2.42;;;;;;;;;;5107095;28;20096;-62
2024/01/19 02:56:01;;;;;;;4.72;2.50;;;;;;;;;;5102882;28;20707;-63
2024/01/19 02:58:27;;;;;;;7.00;3.30;;;;;;;;;;5095487;28;20047;-62
2024/01/19 03:00:54;;;;;;;5.97;3.55;;;;;;;;;;5086609;28;20052;-63
2024/01/19 03:03:20;;;;;;;7.78;4.03;;;;;;;;;;5089433;28;20524;-63
2024/01/19 03:05:47;;;;;;;8.63;4.32;;;;;;;;;;5092277;28;20136;-62
2024/01/19 03:08:13;;;;;;;9.18;4.03;;;;;;;;;;5087594;28;20046;-62
2024/01/19 03:10:40;;;;;;;10.15;4.88;;;;;;;;;;5094110;28;20478;-63
2024/01/19 03:13:06;;;;;;;8.35;4.85;;;;;;;;;;5083389;28;20044;-61
2024/01/19 03:15:33;;;;;;;9.88;5.13;;;;;;;;;;5106345;28;20503;-62
2024/01/19 03:17:59;;;;;;;8.25;4.75;;;;;;;;;;5078952;28;20464;-62
2024/01/19 03:20:25;;;;;;;11.05;5.10;;;;;;;;;;5099288;28;20052;-61
2024/01/19 03:22:52;;;;;;;8.57;5.10;;;;;;;;;;5107524;28;20055;-61
2024/01/19 03:25:18;;;;;;;8.98;5.78;;;;;;;;;;5089003;28;20047;-62
2024/01/19 03:27:44;;;;;;;8.10;5.43;;;;;;;;;;5089112;28;20925;-62
2024/01/19 03:30:11;;;;;;;7.63;5.05;;;;;;;;;;5084463;28;20048;-63
2024/01/19 03:32:38;;;;;;;8.15;5.90;;;;;;;;;;5083950;28;20044;-62
2024/01/19 03:35:04;;;;;;;9.70;6.20;;;;;;;;;;5080840;28;20059;-65
2024/01/19 03:37:31;;;;;;;10.27;5.68;;;;;;;;;;5071860;28;20052;-62
2024/01/19 03:39:57;;;;;;;12.90;6.32;;;;;;;;;;5080367;28;20105;-62
2024/01/19 03:42:26;;;;;;;9.48;6.50;;;;;;;;;;5080559;28;20044;-62
2024/01/19 03:44:52;;;;;;;9.35;5.57;;;;;;;;;;5084896;28;20044;-62
2024/01/19 03:47:19;;;;;;;11.10;5.32;;;;;;;;;;5077920;28;20047;-63
2024/01/19 03:49:45;;;;;;;9.32;6.10;;;;;;;;;;5087519;28;20063;-62
2024/01/19 03:52:12;;;;;;;9.65;6.35;;;;;;;;;;5084481;28;20502;-62
2024/01/19 03:54:39;;;;;;;10.98;5.60;;;;;;;;;;5088037;28;20087;-61
2024/01/19 03:57:06;;;;;;;13.13;5.95;;;;;;;;;;5087858;28;20055;-62
2024/01/19 03:59:32;;;;;;;10.70;5.70;;;;;;;;;;5077092;28;20131;-62
2024/01/19 04:01:59;;;;;;;16.08;5.90;;;;;;;;;;5087820;28;20441;-63
2024/01/19 04:04:26;;;;;;;11.35;6.03;;;;;;;;;;5082160;28;20477;-62
2024/01/19 04:06:53;;;;;;;8.90;5.55;;;;;;;;;;5082942;28;20048;-62
2024/01/19 04:09:20;;;;;;;12.35;5.40;;;;;;;;;;5086006;28;20044;-63
2024/01/19 04:11:46;;;;;;;9.07;5.18;;;;;;;;;;5071371;28;20395;-62
2024/01/19 04:14:13;;;;;;;9.57;5.38;;;;;;;;;;5091419;28;20049;-62
2024/01/19 04:16:39;;;;;;;15.18;5.50;;;;;;;;;;5082160;28;20452;-62
2024/01/19 04:19:06;;;;;;;11.15;5.85;;;;;;;;;;5100301;28;20051;-62
2024/01/19 04:21:33;;;;;;;8.48;5.65;;;;;;;;;;5066076;28;20075;-61
2024/01/19 04:23:59;;;;;;;8.65;5.70;;;;;;;;;;5087685;28;20412;-62
2024/01/19 04:26:27;;;;;;;7.22;5.03;;;;;;;;;;5097171;28;20051;-62
2024/01/19 04:28:54;;;;;;;9.23;5.60;;;;;;;;;;5091109;28;20054;-62
2024/01/19 04:31:21;;;;;;;8.82;5.65;;;;;;;;;;5083201;28;20599;-62
2024/01/19 04:33:47;;;;;;;9.25;5.20;;;;;;;;;;5087249;28;20163;-62
2024/01/19 04:36:14;;;;;;;8.70;4.90;;;;;;;;;;5087457;28;20750;-62
2024/01/19 04:38:40;;;;;;;7.80;4.72;;;;;;;;;;5096072;28;20134;-62
2024/01/19 04:41:06;;;;;;;7.75;4.63;;;;;;;;;;5058425;28;20476;-62
2024/01/19 04:43:33;;;;;;;8.27;4.97;;;;;;;;;;5086984;28;20444;-62
2024/01/19 04:45:59;;;;;;;9.00;5.35;;;;;;;;;;5063621;28;20477;-62
2024/01/19 04:48:26;;;;;;;13.18;5.18;;;;;;;;;;5070621;28;20118;-62
2024/01/19 04:50:52;;;;;;;11.48;5.43;;;;;;;;;;5064857;28;20155;-61
2024/01/19 04:53:19;;;;;;;7.43;4.85;;;;;;;;;;5068265;28;20464;-62
2024/01/19 04:55:45;;;;;;;8.35;4.85;;;;;;;;;;5075197;28;20056;-62
2024/01/19 04:58:11;;;;;;;7.57;4.68;;;;;;;;;;5082501;28;20915;-62
2024/01/19 05:00:38;;;;;;;8.02;5.25;;;;;;;;;;5088540;28;20128;-62
2024/01/19 05:03:04;;;;;;;11.60;5.18;;;;;;;;;;5075810;28;20052;-62
2024/01/19 05:05:31;;;;;;;9.75;5.13;;;;;;;;;;5086932;28;20591;-61
2024/01/19 05:08:00;;;;;;;11.23;5.90;;;;;;;;;;5082322;28;20052;-60
2024/01/19 05:10:26;;;;;;;;;;;;;;;;;;5069684;28;20168;-62
2024/01/19 05:12:52;;;;;;;9.30;5.30;;;;;;;;;;5078559;28;19924;-62
2024/01/19 05:15:19;;;;;;;7.75;4.72;;;;;;;;;;5081424;28;20245;-63
2024/01/19 05:17:48;;;;;;;9.38;4.43;;;;;;;;;;5105443;28;20050;-62
2024/01/19 05:20:15;;;;;;;9.68;5.28;;;;;;;;;;5087388;28;20048;-61
2024/01/19 05:22:41;;;;;;;7.22;4.55;;;;;;;;;;5078309;28;20268;-62
2024/01/19 05:25:08;;;;;;;9.52;5.75;;;;;;;;;;5086045;28;20059;-62
2024/01/19 05:27:35;;;;;;;7.85;4.85;;;;;;;;;;5090975;28;20346;-62
2024/01/19 05:30:01;;;;;;;8.10;4.63;;;;;;;;;;5105016;28;20047;-63
2024/01/19 05:32:28;;;;;;;7.68;4.63;;;;;;;;;;5065973;28;20123;-63
2024/01/19 05:34:54;;;;;;;10.07;4.40;;;;;;;;;;5082524;28;20044;-63
2024/01/19 05:37:21;;;;;;;11.82;5.43;;;;;;;;;;5077874;28;20058;-63
2024/01/19 05:39:47;;;;;;;12.05;4.85;;;;;;;;;;5085536;28;20052;-64
2024/01/19 05:42:13;;;;;;;10.25;4.60;;;;;;;;;;5086443;28;20484;-64
2024/01/19 05:44:41;;;;;;;10.43;4.95;;;;;;;;;;5080413;28;20063;-63
2024/01/19 05:47:08;;;;;;;6.50;4.05;;;;;;;;;;5086932;28;20051;-63
2024/01/19 05:49:34;;;;;;;8.82;4.72;;;;;;;;;;5077070;28;20105;-63
2024/01/19 05:52:01;;;;;;;8.10;4.28;;;;;;;;;;5081815;28;20044;-62
2024/01/19 05:54:27;;;;;;;7.53;4.55;;;;;;;;;;5078809;28;20135;-63
2024/01/19 05:56:53;;;;;;;5.97;4.45;;;;;;;;;;5083864;28;20047;-63
2024/01/19 05:59:20;;;;;;;9.30;4.63;;;;;;;;;;5093297;28;20048;-64
2024/01/19 06:01:46;;;;;;;7.90;4.40;;;;;;;;;;5075515;28;20044;-63
2024/01/19 06:04:12;;;;;;;6.90;3.92;;;;;;;;;;5080279;28;20054;-63
2024/01/19 06:06:39;;;;;;;6.53;4.07;;;;;;;;;;5068503;28;20040;-63
2024/01/19 06:09:05;;;;;;;8.90;4.28;;;;;;;;;;5073593;28;20056;-63
2024/01/19 06:11:32;;;;;;;9.40;4.32;;;;;;;;;;5072861;28;20055;-62
2024/01/19 06:13:58;;;;;;;8.77;4.18;;;;;;;;;;5086176;28;20043;-63
2024/01/19 06:16:25;;;;;;;7.63;4.18;;;;;;;;;;5091705;28;20080;-62
2024/01/19 06:18:51;;;;;;;7.10;4.15;;;;;;;;;;5076455;28;20051;-64
2024/01/19 06:21:19;;;;;;;14.23;4.35;;;;;;;;;;5085010;28;20115;-63
2024/01/19 06:23:45;;;;;;;7.22;3.80;;;;;;;;;;5076898;28;20492;-63
2024/01/19 06:26:12;;;;;;;8.77;4.10;;;;;;;;;;5085505;28;20039;-62
2024/01/19 06:28:38;;;;;;;8.05;4.43;;;;;;;;;;5097939;28;20075;-63
2024/01/19 06:31:07;;;;;;;9.82;4.18;;;;;;;;;;5076346;28;20056;-63
2024/01/19 06:33:33;;;;;;;9.93;4.15;;;;;;;;;;5073596;28;20052;-63
2024/01/19 06:36:00;;;;;;;9.10;4.50;;;;;;;;;;5092558;28;20751;-62
2024/01/19 06:38:26;;;;;;;9.48;4.53;;;;;;;;;;5085235;28;20056;-61
2024/01/19 06:40:53;;;;;;;6.78;3.88;;;;;;;;;;5085589;28;20040;-63
2024/01/19 06:43:19;;;;;;;10.35;4.43;;;;;;;;;;5079558;28;20052;-63
2024/01/19 06:45:46;;;;;;;8.27;4.60;;;;;;;;;;5080601;28;20047;-63
2024/01/19 06:48:13;;;;;;;11.93;4.93;;;;;;;;;;5075407;28;20067;-63
2024/01/19 06:50:40;;;;;;;12.43;5.07;;;;;;;;;;5084856;28;20055;-63
2024/01/19 06:53:06;;;;;;;10.07;5.35;;;;;;;;;;5076483;28;20086;-62
2024/01/19 06:55:32;;;;;;;11.63;6.45;;;;;;;;;;5084424;28;20123;-62
2024/01/19 06:57:59;;;;;;;17.95;7.05;;;;;;;;;;5083522;28;20074;-63
2024/01/19 07:00:25;;;;;;;13.82;6.65;;;;;;;;;;5073382;28;20056;-62
2024/01/19 07:02:52;;;;;;;16.45;7.18;;;;;;;;;;5077113;28;20044;-63
2024/01/19 07:05:19;;;;;;;18.75;7.30;;;;;;;;;;5060642;28;20503;-62
2024/01/19 07:07:46;;;;;;;10.75;7.55;;;;;;;;;;5079455;28;20131;-62
2024/01/19 07:10:12;;;;;;;20.75;7.75;;;;;;;;;;5075348;28;20551;-62
2024/01/19 07:12:39;;;;;;;20.77;7.82;;;;;;;;;;5073393;28;20059;-63
2024/01/19 07:15:06;;;;;;;33.90;8.02;;;;;;;;;;5082919;28;20048;-64
2024/01/19 07:17:32;;;;;;;43.17;9.30;;;;;;;;;;5080992;28;20131;-63
2024/01/19 07:20:00;;;;;;;17.40;8.20;;;;;;;;;;5071541;28;20127;-65
2024/01/19 07:22:27;;;;;;;27.27;7.93;;;;;;;;;;5079041;28;20127;-64
2024/01/19 07:24:54;;;;;;;59.08;9.70;;;;;;;;;;5084328;28;20109;-64
2024/01/19 07:27:20;;;;;;;30.27;8.02;;;;;;;;;;5095531;28;20125;-64
2024/01/19 07:29:46;;;;;;;20.13;8.90;;;;;;;;;;5086795;28;20070;-64
2024/01/19 07:32:13;;;;;;;22.23;8.88;;;;;;;;;;5087955;28;20048;-66
2024/01/19 07:34:40;;;;;;;25.52;8.00;;;;;;;;;;5082648;28;20055;-65
2024/01/19 07:37:06;;;;;;;21.90;7.90;;;;;;;;;;5089451;28;20075;-64
2024/01/19 07:39:32;;;;;;;12.38;7.65;;;;;;;;;;5097463;28;20055;-64
2024/01/19 07:42:00;;;;;;;11.90;7.07;;;;;;;;;;5074659;28;20079;-64
2024/01/19 07:44:26;;;;;;;15.20;7.65;;;;;;;;;;5079033;28;20052;-65
2024/01/19 07:46:53;;;;;;;13.23;7.60;;;;;;;;;;5083050;28;20052;-63
2024/01/19 07:49:21;;;;;;;13.23;8.25;;;;;;;;;;5088011;28;20048;-65
2024/01/19 07:51:48;;;;;;;13.13;7.10;;;;;;;;;;5082674;28;20135;-65
2024/01/19 07:54:16;;;;;;;9.68;6.78;;;;;;;;;;5088951;28;20040;-63
2024/01/19 07:56:43;;;;;;;11.70;7.60;;;;;;;;;;5088689;28;20710;-66
2024/01/19 07:59:09;;;;;;;15.02;6.93;;;;;;;;;;5090907;28;20285;-66
2024/01/19 08:01:36;;;;;;;14.73;7.65;;;;;;;;;;5086805;28;20571;-66
2024/01/19 08:04:02;;;;;;;11.57;7.03;;;;;;;;;;5082698;28;20452;-67
2024/01/19 08:06:29;;;;;;;13.35;6.85;;;;;;;;;;5096563;28;21362;-66
2024/01/19 08:08:56;;;;;;;16.50;7.53;;;;;;;;;;5087261;28;20131;-64
2024/01/19 08:11:22;;;;;;;15.43;7.40;;;;;;;;;;5083358;28;20545;-67
2024/01/19 08:13:49;;;;;;;10.85;6.78;;;;;;;;;;5099396;28;20051;-66
2024/01/19 08:16:15;;;;;;;14.90;8.20;;;;;;;;;;5057164;28;20138;-67
2024/01/19 08:18:41;;;;;;;13.60;9.30;;;;;;;;;;5079858;28;20450;-67
2024/01/19 08:21:08;;;;;;;27.20;10.30;;;;;;;;;;5099298;28;20046;-67
2024/01/19 08:23:34;;;;;;;16.52;8.35;;;;;;;;;;5081580;28;20050;-67
2024/01/19 08:26:01;;;;;;;13.93;8.38;;;;;;;;;;5087401;28;20040;-66
2024/01/19 08:28:28;;;;;;;15.27;7.78;;;;;;;;;;5094260;28;20075;-67
2024/01/19 08:30:54;;;;;;;13.63;8.98;;;;;;;;;;5093714;28;20127;-67
2024/01/19 08:33:22;;;;;;;15.98;8.93;;;;;;;;;;5073961;28;20048;-66
2024/01/19 08:35:49;;;;;;;16.73;9.57;;;;;;;;;;5087647;28;20071;-65
2024/01/19 08:38:16;;;;;;;18.10;8.63;;;;;;;;;;5102893;28;20131;-67
2024/01/19 08:40:42;;;;;;;19.45;9.07;;;;;;;;;;5100070;28;20075;-66
2024/01/19 08:43:09;;;;;;;15.20;8.27;;;;;;;;;;5106511;28;20095;-68
2024/01/19 08:45:35;;;;;;;19.08;8.88;;;;;;;;;;5064559;28;20086;-66
2024/01/19 08:48:02;;;;;;;17.92;10.10;;;;;;;;;;5086703;28;21104;-66
2024/01/19 08:50:29;;;;;;;17.90;9.63;;;;;;;;;;5090748;28;20043;-68
2024/01/19 08:52:55;;;;;;;21.33;10.00;;;;;;;;;;5066706;28;20047;-67
2024/01/19 08:55:22;;;;;;;21.60;9.27;;;;;;;;;;5086523;28;20052;-67
2024/01/19 08:57:48;;;;;;;17.52;10.15;;;;;;;;;;5079932;28;20407;-67
2024/01/19 09:00:15;;;;;;;16.70;9.85;;;;;;;;;;5074092;28;20535;-67
2024/01/19 09:02:41;;;;;;;18.73;11.18;;;;;;;;;;5085424;28;20118;-68
2024/01/19 09:05:19;;;;;;;19.95;10.55;;;;;;;;;;5090042;28;20051;-67
2024/01/19 09:07:45;;;;;;;17.27;9.95;;;;;;;;;;5083017;28;20055;-65
2024/01/19 09:10:12;;;;;;;17.38;10.05;;;;;;;;;;5086418;28;20153;-68
2024/01/19 09:12:38;;;;;;;20.25;11.25;;;;;;;;;;5085734;28;20613;-67
2024/01/19 09:15:05;;;;;;;25.55;11.18;;;;;;;;;;5095957;28;20878;-68
2024/01/19 09:17:31;;;;;;;24.98;12.70;;;;;;;;;;5086393;28;20468;-68
2024/01/19 09:19:58;;;;;;;21.67;11.40;;;;;;;;;;5075330;28;20242;-66
2024/01/19 09:22:25;;;;;;;20.40;11.88;;;;;;;;;;5086061;28;20164;-67
2024/01/19 09:24:51;;;;;;;21.27;12.73;;;;;;;;;;5085250;28;20048;-67
2024/01/19 09:27:17;;;;;;;24.90;13.18;;;;;;;;;;5092473;28;20131;-68
2024/01/19 09:29:44;;;;;;;23.98;11.77;;;;;;;;;;5098917;28;20134;-66
2024/01/19 09:32:12;;;;;;;27.00;12.77;;;;;;;;;;5074560;28;20043;-67
2024/01/19 09:34:40;;;;;;;25.88;12.88;;;;;;;;;;5086694;28;20154;-68
2024/01/19 09:37:07;;;;;;;36.92;15.70;;;;;;;;;;5081768;28;20468;-68
2024/01/19 09:39:33;;;;;;;26.45;13.25;;;;;;;;;;5083365;28;20044;-68
2024/01/19 09:42:04;;;;;;;32.25;14.27;;;;;;;;;;5084295;28;20443;-67
2024/01/19 09:44:34;;;;;;;26.67;13.70;;;;;;;;;;5073552;28;20055;-68
2024/01/19 09:47:15;;;;;;;29.48;15.02;;;;;;;;;;5081476;28;20504;-67
2024/01/19 09:49:45;;;;;;;25.30;14.75;;;;;;;;;;5084294;28;20066;-68
2024/01/19 09:52:26;;;;;;;28.17;13.95;;;;;;;;;;5084199;28;20036;-68
2024/01/19 09:54:54;;;;;;;28.58;13.32;;;;;;;;;;5082299;28;20050;-68
2024/01/19 09:57:20;;;;;;;27.55;15.27;;;;;;;;;;5093724;28;20671;-66
2024/01/19 09:59:47;;;;;;;27.70;14.32;;;;;;;;;;5080689;28;20044;-68
2024/01/19 10:02:16;;;;;;;18.85;12.82;;;;;;;;;;5082470;28;20044;-67
2024/01/19 10:04:42;;;;;;;22.02;13.38;;;;;;;;;;5088101;28;20457;-66
2024/01/19 10:07:09;;;;;;;23.75;13.63;;;;;;;;;;5074456;28;20047;-68
2024/01/19 10:09:36;;;;;;;20.70;13.52;;;;;;;;;;5085083;28;20476;-68
2024/01/19 10:12:06;;;;;;;18.52;12.30;;;;;;;;;;5080112;28;20072;-68
2024/01/19 10:14:32;;;;;;;24.48;13.90;;;;;;;;;;5082530;28;20048;-68
2024/01/19 10:16:59;;;;;;;21.17;13.18;;;;;;;;;;5084717;28;20676;-67
2024/01/19 10:19:26;;;;;;;25.90;13.13;;;;;;;;;;5084009;28;20052;-67
2024/01/19 10:21:52;;;;;;;16.98;10.60;;;;;;;;;;5086195;28;20377;-68
2024/01/19 10:24:19;;;;;;;17.50;11.55;;;;;;;;;;5060973;28;20047;-69
2024/01/19 10:26:52;;;;;;;20.67;11.40;;;;;;;;;;5087275;28;20052;-65
2024/01/19 10:29:20;;;;;;;21.83;11.00;;;;;;;;;;5084365;28;20075;-69
2024/01/19 10:31:48;;;;;;;18.95;10.90;;;;;;;;;;5084275;28;20365;-69
2024/01/19 10:34:15;;;;;;;24.70;11.52;;;;;;;;;;5076935;28;20036;-69
2024/01/19 10:36:41;;;;;;;24.55;10.80;;;;;;;;;;5080445;28;20052;-68
2024/01/19 10:39:14;;;;;;;23.02;11.20;;;;;;;;;;5080743;28;20048;-67
2024/01/19 10:41:41;;;;;;;21.67;11.45;;;;;;;;;;5076408;28;20537;-68
2024/01/19 10:44:11;;;;;;;16.40;10.45;;;;;;;;;;5084860;28;20108;-68
2024/01/19 10:46:38;;;;;;;16.50;9.05;;;;;;;;;;5085305;28;20048;-67
2024/01/19 10:49:06;;;;;;;18.02;9.73;;;;;;;;;;5084089;28;20050;-69
2024/01/19 10:51:40;;;;;;;19.20;10.82;;;;;;;;;;5085311;28;20044;-69
2024/01/19 10:54:07;;;;;;;14.65;9.40;;;;;;;;;;5074804;28;20131;-68
2024/01/19 10:56:34;;;;;;;18.55;9.15;;;;;;;;;;5083705;28;20444;-68
2024/01/19 10:59:10;;;;;;;17.13;9.13;;;;;;;;;;5078485;28;20090;-69
2024/01/19 11:01:37;;;;;;;16.38;9.50;;;;;;;;;;5066567;28;20048;-69
2024/01/19 11:04:08;;;;;;;14.95;9.45;;;;;;;;;;5086674;28;20051;-71
2024/01/19 11:06:36;;;;;;;16.90;9.40;;;;;;;;;;5093583;28;20060;-70
2024/01/19 11:09:05;;;;;;;17.58;8.88;;;;;;;;;;5086081;28;20052;-71
2024/01/19 11:11:50;;;;;;;12.93;7.95;;;;;;;;;;5068213;28;20054;-69
2024/01/19 11:14:18;;;;;;;14.38;8.55;;;;;;;;;;5092233;28;20044;-69
2024/01/19 11:16:48;;;;;;;15.18;7.82;;;;;;;;;;5093264;28;20054;-70
2024/01/19 11:19:14;;;;;;;15.18;8.35;;;;;;;;;;5089736;28;20146;-67
2024/01/19 11:21:41;;;;;;;15.88;9.63;;;;;;;;;;5087172;28;20158;-68
2024/01/19 11:24:08;;;;;;;17.73;9.02;;;;;;;;;;5102558;28;20043;-68
2024/01/19 11:26:44;;;;;;;15.35;8.98;;;;;;;;;;5085926;28;20075;-68
2024/01/19 11:29:21;;;;;;;14.80;8.18;;;;;;;;;;5093238;28;20051;-70
2024/01/19 11:31:48;;;;;;;13.57;6.97;;;;;;;;;;5088981;28;20098;-68
2024/01/19 11:34:34;;;;;;;12.13;7.43;;;;;;;;;;5079368;28;20043;-68
2024/01/19 11:37:00;;;;;;;11.95;6.85;;;;;;;;;;5084018;28;20055;-68
2024/01/19 11:39:42;;;;;;;13.90;7.13;;;;;;;;;;5081431;28;20052;-68
2024/01/19 11:42:29;;;;;;;12.07;6.95;;;;;;;;;;5061607;28;20056;-69
2024/01/19 11:44:55;;;;;;;14.65;7.15;;;;;;;;;;5090219;28;20082;-68
2024/01/19 11:47:38;;;;;;;12.95;7.35;;;;;;;;;;5060999;28;20122;-70
2024/01/19 11:50:06;;;;;;;14.15;6.93;;;;;;;;;;5097672;28;20044;-70
2024/01/19 11:52:36;;;;;;;14.02;6.57;;;;;;;;;;5092547;28;20052;-70
2024/01/19 11:55:21;;;;;;;11.18;6.00;;;;;;;;;;5085381;28;20055;-71
2024/01/19 11:57:47;;;;;;;11.45;7.07;;;;;;;;;;5099917;28;20419;-70
2024/01/19 12:00:14;;;;;;;11.77;5.78;;;;;;;;;;5087574;28;20083;-72
2024/01/19 12:02:41;;;;;;;9.38;5.53;;;;;;;;;;5078455;28;20048;-69
2024/01/19 12:05:08;;;;;;;10.73;5.40;;;;;;;;;;5084139;28;20094;-71
2024/01/19 12:07:39;;;;;;;14.20;5.38;;;;;;;;;;5099547;28;20048;-68
2024/01/19 12:10:12;;;;;;;14.98;6.15;;;;;;;;;;5067991;28;20514;-67
2024/01/19 12:12:39;;;;;;;17.02;5.93;;;;;;;;;;5089423;28;20423;-68
2024/01/19 12:15:07;;;;;;;13.10;5.88;;;;;;;;;;5079837;28;20044;-66
2024/01/19 12:17:34;;;;;;;;;;;;;;;;;;5087706;28;20048;-67
2024/01/19 12:20:02;;;;;;;11.10;5.32;;;;;;;;;;5100307;28;20053;-67
2024/01/19 12:22:30;;;;;;;11.88;4.90;;;;;;;;;;5090281;28;20484;-70
2024/01/19 12:25:16;;;;;;;11.45;4.72;;;;;;;;;;5087270;28;20056;-68
2024/01/19 12:27:43;;;;;;;17.35;4.68;;;;;;;;;;5093238;28;20051;-70
2024/01/19 12:30:11;;;;;;;7.72;4.80;;;;;;;;;;5071967;28;20333;-70
2024/01/19 12:32:37;;;;;;;14.63;5.25;;;;;;;;;;5076123;28;20059;-70
2024/01/19 12:35:04;;;;;;;10.55;4.32;;;;;;;;;;5076211;28;20056;-71
2024/01/19 12:37:30;;;;;;;10.75;4.88;;;;;;;;;;5089579;28;20459;-66
2024/01/19 12:40:15;;;;;;;6.40;4.03;;;;;;;;;;5086826;28;20080;-69
2024/01/19 12:42:42;;;;;;;11.98;4.57;;;;;;;;;;5076963;28;20055;-64
2024/01/19 12:45:11;;;;;;;10.18;4.65;;;;;;;;;;5077172;28;20050;-66
2024/01/19 12:47:37;;;;;;;;;;;;;;;;;;5087161;28;20044;-68
2024/01/19 12:50:04;;;;;;;9.27;4.50;;;;;;;;;;5063234;28;19931;-66
2024/01/19 12:52:39;;;;;;;13.90;4.78;;;;;;;;;;5087464;28;20040;-67
2024/01/19 12:55:06;;;;;;;8.45;4.03;;;;;;;;;;5083630;28;20112;-67
2024/01/19 12:57:32;;;;;;;12.10;4.88;;;;;;;;;;5072652;28;20101;-66
2024/01/19 13:00:10;;;;;;;12.85;4.78;;;;;;;;;;5077058;28;20043;-68
2024/01/19 13:02:37;;;;;;;12.05;4.40;;;;;;;;;;5080491;28;20048;-70
2024/01/19 13:05:05;;;;;;;13.85;4.75;;;;;;;;;;5086127;28;20067;-69
2024/01/19 13:07:32;;;;;;;12.68;4.43;;;;;;;;;;5077449;28;20075;-68
2024/01/19 13:10:00;;;;;;;17.95;4.95;;;;;;;;;;5082317;28;20699;-69
2024/01/19 13:12:26;;;;;;;8.90;4.80;;;;;;;;;;5074650;28;20122;-70
2024/01/19 13:15:02;;;;;;;8.98;3.80;;;;;;;;;;5093544;28;20476;-74
2024/01/19 13:17:28;;;;;;;8.98;4.20;;;;;;;;;;5085895;28;20162;-69
2024/01/19 13:19:54;;;;;;;8.93;4.38;;;;;;;;;;5079543;28;20050;-69
2024/01/19 13:22:21;;;;;;;7.53;4.07;;;;;;;;;;5066673;28;20055;-69
2024/01/19 13:24:49;;;;;;;10.15;4.13;;;;;;;;;;5076497;28;20696;-69
2024/01/19 13:27:15;;;;;;;8.70;4.00;;;;;;;;;;5067135;28;20062;-66
2024/01/19 13:29:42;;;;;;;8.63;4.40;;;;;;;;;;5092540;28;20087;-65
2024/01/19 13:32:08;;;;;;;11.25;4.45;;;;;;;;;;5084954;28;20131;-67
2024/01/19 13:34:35;;;;;;;8.68;4.00;;;;;;;;;;5092186;28;20070;-69
2024/01/19 13:37:01;;;;;;;11.90;4.60;;;;;;;;;;5079942;28;20134;-66
2024/01/19 13:39:28;;;;;;;12.55;4.70;;;;;;;;;;5089838;28;20051;-69
2024/01/19 13:41:54;;;;;;;20.75;5.55;;;;;;;;;;5093098;28;20040;-70
2024/01/19 13:44:21;;;;;;;12.27;4.70;;;;;;;;;;5105868;28;20131;-69
2024/01/19 13:46:47;;;;;;;11.25;4.40;;;;;;;;;;5085401;28;20123;-69
2024/01/19 13:49:14;;;;;;;7.90;3.70;;;;;;;;;;5077190;28;20052;-70
2024/01/19 13:51:41;;;;;;;11.65;4.80;;;;;;;;;;5086408;28;20050;-67
2024/01/19 13:54:07;;;;;;;11.52;4.13;;;;;;;;;;5078969;28;20637;-69
2024/01/19 13:56:33;;;;;;;9.93;4.40;;;;;;;;;;5095863;28;20043;-68
2024/01/19 13:59:00;;;;;;;10.10;4.32;;;;;;;;;;5077280;28;20098;-66
2024/01/19 14:01:26;;;;;;;10.68;4.40;;;;;;;;;;5097984;28;20159;-68
2024/01/19 14:03:53;;;;;;;9.05;4.18;;;;;;;;;;5092375;28;20044;-70
2024/01/19 14:06:20;;;;;;;11.18;4.82;;;;;;;;;;5083125;28;20130;-70
2024/01/19 14:08:51;;;;;;;13.00;4.95;;;;;;;;;;5089516;28;20980;-68
2024/01/19 14:11:18;;;;;;;8.55;3.97;;;;;;;;;;5081874;28;20084;-71
2024/01/19 14:13:45;;;;;;;9.82;4.25;;;;;;;;;;5094759;28;20066;-69
2024/01/19 14:16:11;;;;;;;9.75;4.18;;;;;;;;;;5084789;28;20083;-68
2024/01/19 14:18:38;;;;;;;10.70;3.95;;;;;;;;;;5082474;28;20066;-72
2024/01/19 14:21:04;;;;;;;8.77;4.38;;;;;;;;;;5081195;28;20598;-67
2024/01/19 14:23:30;;;;;;;7.53;4.30;;;;;;;;;;5078509;28;20091;-71
2024/01/19 14:25:58;;;;;;;11.50;4.90;;;;;;;;;;5088149;28;20471;-67
2024/01/19 14:28:24;;;;;;;9.30;4.22;;;;;;;;;;5093446;28;20070;-70
2024/01/19 14:30:51;;;;;;;9.30;4.50;;;;;;;;;;5088884;28;20554;-69
2024/01/19 14:33:18;;;;;;;11.40;4.30;;;;;;;;;;5084821;28;20399;-70
2024/01/19 14:35:47;;;;;;;9.48;4.80;;;;;;;;;;5076551;28;20116;-66
2024/01/19 14:38:14;;;;;;;10.32;4.25;;;;;;;;;;5086599;28;20181;-71